sensor_id;sensor_type;location;lat;lon;timestamp;P1;durP1;ratioP1;P2;durP2;ratioP2
45970;SDS011;31681;48.982;8.394;2023-08-20T00:02:16;15.45;;;13.75;;
45970;SDS011;31681;48.982;8.394;2023-08-20T00:04:42;13.52;;;12.13;;
45970;SDS011;31681;48.982;8.394;2023-08-20T00:07:09;18.05;;;14.70;;
45970;SDS011;31681;48.982;8.394;2023-08-20T00:09:34;18.88;;;15.40;;
45970;SDS011;31681;48.982;8.394;2023-08-20T00:12:00;19.90;;;16.25;;
45970;SDS011;31681;48.982;8.394;2023-08-20T00:17:11;17.73;;;14.55;;
45970;SDS011;31681;48.982;8.394;2023-08-20T00:19:37;19.17;;;16.05;;
45970;SDS011;31681;48.982;8.394;2023-08-20T00:22:02;16.30;;;14.52;;
45970;SDS011;31681;48.982;8.394;2023-08-20T00:24:28;16.58;;;14.57;;
45970;SDS011;31681;48.982;8.394;2023-08-20T00:26:53;19.35;;;14.90;;
45970;SDS011;31681;48.982;8.394;2023-08-20T00:29:18;15.52;;;13.98;;
45970;SDS011;31681;48.982;8.394;2023-08-20T00:31:44;18.58;;;15.02;;
45970;SDS011;31681;48.982;8.394;2023-08-20T00:34:09;16.13;;;13.27;;
45970;SDS011;31681;48.982;8.394;2023-08-20T00:36:35;17.15;;;13.30;;
45970;SDS011;31681;48.982;8.394;2023-08-20T00:39:00;14.13;;;12.02;;
45970;SDS011;31681;48.982;8.394;2023-08-20T00:41:25;15.23;;;13.63;;
45970;SDS011;31681;48.982;8.394;2023-08-20T00:43:51;15.95;;;13.20;;
45970;SDS011;31681;48.982;8.394;2023-08-20T00:46:16;18.45;;;15.38;;
45970;SDS011;31681;48.982;8.394;2023-08-20T00:48:41;14.40;;;12.90;;
45970;SDS011;31681;48.982;8.394;2023-08-20T00:51:06;18.88;;;14.10;;
45970;SDS011;31681;48.982;8.394;2023-08-20T00:53:32;18.50;;;14.23;;
45970;SDS011;31681;48.982;8.394;2023-08-20T00:55:57;15.77;;;13.77;;
45970;SDS011;31681;48.982;8.394;2023-08-20T00:58:22;19.48;;;14.35;;
45970;SDS011;31681;48.982;8.394;2023-08-20T01:00:48;16.45;;;14.13;;
45970;SDS011;31681;48.982;8.394;2023-08-20T01:03:13;15.45;;;13.48;;
45970;SDS011;31681;48.982;8.394;2023-08-20T01:05:39;16.45;;;12.90;;
45970;SDS011;31681;48.982;8.394;2023-08-20T01:08:14;16.42;;;13.52;;
45970;SDS011;31681;48.982;8.394;2023-08-20T01:10:42;14.95;;;13.30;;
45970;SDS011;31681;48.982;8.394;2023-08-20T01:13:14;15.48;;;13.82;;
45970;SDS011;31681;48.982;8.394;2023-08-20T01:15:39;17.08;;;12.95;;
45970;SDS011;31681;48.982;8.394;2023-08-20T01:18:05;16.15;;;12.65;;
45970;SDS011;31681;48.982;8.394;2023-08-20T01:20:32;16.45;;;13.52;;
45970;SDS011;31681;48.982;8.394;2023-08-20T01:23:02;15.52;;;13.05;;
45970;SDS011;31681;48.982;8.394;2023-08-20T01:25:52;14.40;;;12.27;;
45970;SDS011;31681;48.982;8.394;2023-08-20T01:28:29;16.83;;;12.75;;
45970;SDS011;31681;48.982;8.394;2023-08-20T01:30:58;14.02;;;12.15;;
45970;SDS011;31681;48.982;8.394;2023-08-20T01:33:24;15.13;;;12.48;;
45970;SDS011;31681;48.982;8.394;2023-08-20T01:35:50;19.52;;;12.95;;
45970;SDS011;31681;48.982;8.394;2023-08-20T01:38:16;16.42;;;13.23;;
45970;SDS011;31681;48.982;8.394;2023-08-20T01:40:41;15.25;;;13.52;;
45970;SDS011;31681;48.982;8.394;2023-08-20T01:43:07;15.75;;;13.20;;
45970;SDS011;31681;48.982;8.394;2023-08-20T01:45:32;19.13;;;12.95;;
45970;SDS011;31681;48.982;8.394;2023-08-20T01:47:57;16.95;;;12.90;;
45970;SDS011;31681;48.982;8.394;2023-08-20T01:50:23;12.85;;;11.60;;
45970;SDS011;31681;48.982;8.394;2023-08-20T01:52:48;12.55;;;11.25;;
45970;SDS011;31681;48.982;8.394;2023-08-20T01:55:13;15.48;;;12.10;;
45970;SDS011;31681;48.982;8.394;2023-08-20T01:57:39;15.52;;;11.90;;
45970;SDS011;31681;48.982;8.394;2023-08-20T02:00:04;15.43;;;11.57;;
45970;SDS011;31681;48.982;8.394;2023-08-20T02:02:39;16.65;;;12.57;;
45970;SDS011;31681;48.982;8.394;2023-08-20T02:05:04;13.35;;;11.48;;
45970;SDS011;31681;48.982;8.394;2023-08-20T02:07:29;15.10;;;12.52;;
45970;SDS011;31681;48.982;8.394;2023-08-20T02:09:54;12.85;;;11.48;;
45970;SDS011;31681;48.982;8.394;2023-08-20T02:12:20;13.50;;;11.60;;
45970;SDS011;31681;48.982;8.394;2023-08-20T02:14:45;18.55;;;12.48;;
45970;SDS011;31681;48.982;8.394;2023-08-20T02:17:11;15.18;;;13.02;;
45970;SDS011;31681;48.982;8.394;2023-08-20T02:19:37;15.07;;;12.63;;
45970;SDS011;31681;48.982;8.394;2023-08-20T02:22:02;13.80;;;11.95;;
45970;SDS011;31681;48.982;8.394;2023-08-20T02:24:28;16.30;;;13.27;;
45970;SDS011;31681;48.982;8.394;2023-08-20T02:26:53;14.80;;;13.02;;
45970;SDS011;31681;48.982;8.394;2023-08-20T02:29:18;17.90;;;13.50;;
45970;SDS011;31681;48.982;8.394;2023-08-20T02:31:43;17.15;;;12.98;;
45970;SDS011;31681;48.982;8.394;2023-08-20T02:34:09;17.27;;;13.68;;
45970;SDS011;31681;48.982;8.394;2023-08-20T02:36:34;15.38;;;13.27;;
45970;SDS011;31681;48.982;8.394;2023-08-20T02:39:00;16.02;;;14.25;;
45970;SDS011;31681;48.982;8.394;2023-08-20T02:41:25;16.38;;;12.77;;
45970;SDS011;31681;48.982;8.394;2023-08-20T02:43:51;16.25;;;13.40;;
45970;SDS011;31681;48.982;8.394;2023-08-20T02:46:16;17.80;;;13.18;;
45970;SDS011;31681;48.982;8.394;2023-08-20T02:48:41;18.38;;;13.07;;
45970;SDS011;31681;48.982;8.394;2023-08-20T02:51:07;15.20;;;13.57;;
45970;SDS011;31681;48.982;8.394;2023-08-20T02:53:32;15.68;;;13.52;;
45970;SDS011;31681;48.982;8.394;2023-08-20T02:55:57;19.30;;;17.27;;
45970;SDS011;31681;48.982;8.394;2023-08-20T02:58:23;20.48;;;16.45;;
45970;SDS011;31681;48.982;8.394;2023-08-20T03:00:48;22.40;;;16.13;;
45970;SDS011;31681;48.982;8.394;2023-08-20T03:03:13;17.30;;;14.38;;
45970;SDS011;31681;48.982;8.394;2023-08-20T03:05:41;16.30;;;13.95;;
45970;SDS011;31681;48.982;8.394;2023-08-20T03:08:06;20.45;;;13.55;;
45970;SDS011;31681;48.982;8.394;2023-08-20T03:10:32;17.40;;;13.70;;
45970;SDS011;31681;48.982;8.394;2023-08-20T03:12:58;13.77;;;12.40;;
45970;SDS011;31681;48.982;8.394;2023-08-20T03:15:23;16.33;;;12.77;;
45970;SDS011;31681;48.982;8.394;2023-08-20T03:17:49;14.95;;;12.65;;
45970;SDS011;31681;48.982;8.394;2023-08-20T03:20:14;15.02;;;12.18;;
45970;SDS011;31681;48.982;8.394;2023-08-20T03:22:39;16.48;;;13.27;;
45970;SDS011;31681;48.982;8.394;2023-08-20T03:25:05;16.25;;;13.25;;
45970;SDS011;31681;48.982;8.394;2023-08-20T03:27:30;17.00;;;12.60;;
45970;SDS011;31681;48.982;8.394;2023-08-20T03:29:56;16.27;;;13.35;;
45970;SDS011;31681;48.982;8.394;2023-08-20T03:32:22;15.27;;;13.65;;
45970;SDS011;31681;48.982;8.394;2023-08-20T03:34:48;14.77;;;12.77;;
45970;SDS011;31681;48.982;8.394;2023-08-20T03:37:17;17.52;;;14.45;;
45970;SDS011;31681;48.982;8.394;2023-08-20T03:39:42;18.85;;;15.07;;
45970;SDS011;31681;48.982;8.394;2023-08-20T03:42:07;21.00;;;15.10;;
45970;SDS011;31681;48.982;8.394;2023-08-20T03:44:33;23.25;;;16.98;;
45970;SDS011;31681;48.982;8.394;2023-08-20T03:46:58;18.98;;;16.63;;
45970;SDS011;31681;48.982;8.394;2023-08-20T03:49:25;23.58;;;17.73;;
45970;SDS011;31681;48.982;8.394;2023-08-20T03:51:50;23.73;;;18.58;;
45970;SDS011;31681;48.982;8.394;2023-08-20T03:54:16;20.58;;;16.75;;
45970;SDS011;31681;48.982;8.394;2023-08-20T03:56:42;17.88;;;14.18;;
45970;SDS011;31681;48.982;8.394;2023-08-20T03:59:07;22.30;;;14.98;;
45970;SDS011;31681;48.982;8.394;2023-08-20T04:01:32;16.52;;;14.68;;
45970;SDS011;31681;48.982;8.394;2023-08-20T04:03:57;16.63;;;13.68;;
45970;SDS011;31681;48.982;8.394;2023-08-20T04:06:24;16.17;;;13.07;;
45970;SDS011;31681;48.982;8.394;2023-08-20T04:08:49;16.17;;;13.27;;
45970;SDS011;31681;48.982;8.394;2023-08-20T04:11:14;15.45;;;13.38;;
45970;SDS011;31681;48.982;8.394;2023-08-20T04:13:40;14.50;;;12.30;;
45970;SDS011;31681;48.982;8.394;2023-08-20T04:16:09;16.38;;;13.10;;
45970;SDS011;31681;48.982;8.394;2023-08-20T04:18:34;18.70;;;14.07;;
45970;SDS011;31681;48.982;8.394;2023-08-20T04:20:59;17.02;;;13.65;;
45970;SDS011;31681;48.982;8.394;2023-08-20T04:23:25;15.48;;;13.40;;
45970;SDS011;31681;48.982;8.394;2023-08-20T04:25:50;17.23;;;12.90;;
45970;SDS011;31681;48.982;8.394;2023-08-20T04:28:15;16.63;;;13.15;;
45970;SDS011;31681;48.982;8.394;2023-08-20T04:30:41;14.85;;;13.23;;
45970;SDS011;31681;48.982;8.394;2023-08-20T04:33:06;17.35;;;12.68;;
45970;SDS011;31681;48.982;8.394;2023-08-20T04:35:32;13.70;;;11.88;;
45970;SDS011;31681;48.982;8.394;2023-08-20T04:37:57;17.55;;;12.68;;
45970;SDS011;31681;48.982;8.394;2023-08-20T04:40:23;15.18;;;13.23;;
45970;SDS011;31681;48.982;8.394;2023-08-20T04:42:51;18.67;;;13.80;;
45970;SDS011;31681;48.982;8.394;2023-08-20T04:45:16;15.63;;;13.55;;
45970;SDS011;31681;48.982;8.394;2023-08-20T04:47:45;18.38;;;13.35;;
45970;SDS011;31681;48.982;8.394;2023-08-20T04:50:11;17.70;;;13.75;;
45970;SDS011;31681;48.982;8.394;2023-08-20T04:52:36;15.38;;;13.00;;
45970;SDS011;31681;48.982;8.394;2023-08-20T04:55:02;17.17;;;13.30;;
45970;SDS011;31681;48.982;8.394;2023-08-20T04:57:27;14.45;;;12.68;;
45970;SDS011;31681;48.982;8.394;2023-08-20T04:59:55;14.48;;;12.52;;
45970;SDS011;31681;48.982;8.394;2023-08-20T05:02:35;15.07;;;13.05;;
45970;SDS011;31681;48.982;8.394;2023-08-20T05:05:02;15.00;;;12.48;;
45970;SDS011;31681;48.982;8.394;2023-08-20T05:07:28;17.05;;;12.68;;
45970;SDS011;31681;48.982;8.394;2023-08-20T05:09:53;13.02;;;11.32;;
45970;SDS011;31681;48.982;8.394;2023-08-20T05:12:19;13.93;;;12.43;;
45970;SDS011;31681;48.982;8.394;2023-08-20T05:14:44;16.17;;;13.30;;
45970;SDS011;31681;48.982;8.394;2023-08-20T05:17:09;14.45;;;12.48;;
45970;SDS011;31681;48.982;8.394;2023-08-20T05:19:34;14.13;;;12.57;;
45970;SDS011;31681;48.982;8.394;2023-08-20T05:22:00;13.02;;;11.70;;
45970;SDS011;31681;48.982;8.394;2023-08-20T05:24:28;14.88;;;11.68;;
45970;SDS011;31681;48.982;8.394;2023-08-20T05:27:03;18.85;;;13.38;;
45970;SDS011;31681;48.982;8.394;2023-08-20T05:29:29;17.77;;;15.57;;
45970;SDS011;31681;48.982;8.394;2023-08-20T05:31:54;23.70;;;17.67;;
45970;SDS011;31681;48.982;8.394;2023-08-20T05:34:19;23.23;;;18.90;;
45970;SDS011;31681;48.982;8.394;2023-08-20T05:36:45;25.73;;;20.67;;
45970;SDS011;31681;48.982;8.394;2023-08-20T05:39:10;25.05;;;20.52;;
45970;SDS011;31681;48.982;8.394;2023-08-20T05:41:35;18.15;;;15.90;;
45970;SDS011;31681;48.982;8.394;2023-08-20T05:44:02;18.08;;;14.23;;
45970;SDS011;31681;48.982;8.394;2023-08-20T05:46:27;14.70;;;13.02;;
45970;SDS011;31681;48.982;8.394;2023-08-20T05:48:53;15.50;;;12.32;;
45970;SDS011;31681;48.982;8.394;2023-08-20T05:51:19;14.27;;;12.77;;
45970;SDS011;31681;48.982;8.394;2023-08-20T05:53:44;15.80;;;12.68;;
45970;SDS011;31681;48.982;8.394;2023-08-20T05:56:09;14.73;;;12.38;;
45970;SDS011;31681;48.982;8.394;2023-08-20T05:58:35;14.27;;;12.55;;
45970;SDS011;31681;48.982;8.394;2023-08-20T06:01:00;18.60;;;13.55;;
45970;SDS011;31681;48.982;8.394;2023-08-20T06:03:26;15.40;;;13.18;;
45970;SDS011;31681;48.982;8.394;2023-08-20T06:05:51;15.55;;;13.80;;
45970;SDS011;31681;48.982;8.394;2023-08-20T06:08:16;15.27;;;12.75;;
45970;SDS011;31681;48.982;8.394;2023-08-20T06:10:41;14.10;;;12.60;;
45970;SDS011;31681;48.982;8.394;2023-08-20T06:13:07;14.27;;;12.20;;
45970;SDS011;31681;48.982;8.394;2023-08-20T06:15:32;15.23;;;12.90;;
45970;SDS011;31681;48.982;8.394;2023-08-20T06:17:57;14.52;;;12.63;;
45970;SDS011;31681;48.982;8.394;2023-08-20T06:20:23;16.73;;;13.15;;
45970;SDS011;31681;48.982;8.394;2023-08-20T06:22:48;14.02;;;12.52;;
45970;SDS011;31681;48.982;8.394;2023-08-20T06:25:13;14.10;;;12.02;;
45970;SDS011;31681;48.982;8.394;2023-08-20T06:27:39;13.00;;;11.65;;
45970;SDS011;31681;48.982;8.394;2023-08-20T06:30:05;16.33;;;12.93;;
45970;SDS011;31681;48.982;8.394;2023-08-20T06:32:30;14.38;;;12.80;;
45970;SDS011;31681;48.982;8.394;2023-08-20T06:34:56;15.57;;;11.95;;
45970;SDS011;31681;48.982;8.394;2023-08-20T06:37:21;14.65;;;13.00;;
45970;SDS011;31681;48.982;8.394;2023-08-20T06:39:46;13.75;;;12.25;;
45970;SDS011;31681;48.982;8.394;2023-08-20T06:42:12;13.85;;;12.45;;
45970;SDS011;31681;48.982;8.394;2023-08-20T06:44:37;12.95;;;11.45;;
45970;SDS011;31681;48.982;8.394;2023-08-20T06:47:02;15.80;;;10.43;;
45970;SDS011;31681;48.982;8.394;2023-08-20T06:49:27;12.00;;;10.77;;
45970;SDS011;31681;48.982;8.394;2023-08-20T06:51:53;12.48;;;9.52;;
45970;SDS011;31681;48.982;8.394;2023-08-20T06:54:18;10.45;;;9.30;;
45970;SDS011;31681;48.982;8.394;2023-08-20T06:56:43;10.65;;;9.40;;
45970;SDS011;31681;48.982;8.394;2023-08-20T06:59:09;12.75;;;10.15;;
45970;SDS011;31681;48.982;8.394;2023-08-20T07:01:35;9.88;;;8.90;;
45970;SDS011;31681;48.982;8.394;2023-08-20T07:04:00;10.80;;;9.70;;
45970;SDS011;31681;48.982;8.394;2023-08-20T07:06:26;12.45;;;10.15;;
45970;SDS011;31681;48.982;8.394;2023-08-20T07:08:51;11.73;;;9.70;;
45970;SDS011;31681;48.982;8.394;2023-08-20T07:11:16;12.60;;;9.52;;
45970;SDS011;31681;48.982;8.394;2023-08-20T07:13:42;11.20;;;9.65;;
45970;SDS011;31681;48.982;8.394;2023-08-20T07:16:07;10.65;;;9.50;;
45970;SDS011;31681;48.982;8.394;2023-08-20T07:18:32;11.43;;;9.15;;
45970;SDS011;31681;48.982;8.394;2023-08-20T07:20:57;11.32;;;8.95;;
45970;SDS011;31681;48.982;8.394;2023-08-20T07:23:23;11.93;;;9.63;;
45970;SDS011;31681;48.982;8.394;2023-08-20T07:25:48;10.63;;;9.00;;
45970;SDS011;31681;48.982;8.394;2023-08-20T07:28:17;10.30;;;9.10;;
45970;SDS011;31681;48.982;8.394;2023-08-20T07:30:51;11.80;;;9.18;;
45970;SDS011;31681;48.982;8.394;2023-08-20T07:33:16;10.57;;;9.00;;
45970;SDS011;31681;48.982;8.394;2023-08-20T07:35:42;11.05;;;8.55;;
45970;SDS011;31681;48.982;8.394;2023-08-20T07:38:07;10.73;;;9.63;;
45970;SDS011;31681;48.982;8.394;2023-08-20T07:40:32;10.82;;;9.35;;
45970;SDS011;31681;48.982;8.394;2023-08-20T07:42:57;12.77;;;9.23;;
45970;SDS011;31681;48.982;8.394;2023-08-20T07:45:23;11.20;;;9.15;;
45970;SDS011;31681;48.982;8.394;2023-08-20T07:47:48;10.35;;;9.27;;
45970;SDS011;31681;48.982;8.394;2023-08-20T07:50:13;11.75;;;9.68;;
45970;SDS011;31681;48.982;8.394;2023-08-20T07:52:38;10.97;;;9.87;;
45970;SDS011;31681;48.982;8.394;2023-08-20T07:55:04;12.57;;;10.18;;
45970;SDS011;31681;48.982;8.394;2023-08-20T07:57:29;11.82;;;9.48;;
45970;SDS011;31681;48.982;8.394;2023-08-20T07:59:58;9.70;;;8.70;;
45970;SDS011;31681;48.982;8.394;2023-08-20T08:02:23;10.90;;;9.65;;
45970;SDS011;31681;48.982;8.394;2023-08-20T08:04:49;10.40;;;9.30;;
45970;SDS011;31681;48.982;8.394;2023-08-20T08:07:14;11.73;;;8.75;;
45970;SDS011;31681;48.982;8.394;2023-08-20T08:09:40;10.73;;;9.40;;
45970;SDS011;31681;48.982;8.394;2023-08-20T08:12:05;10.68;;;9.50;;
45970;SDS011;31681;48.982;8.394;2023-08-20T08:14:30;11.30;;;9.15;;
45970;SDS011;31681;48.982;8.394;2023-08-20T08:16:55;10.25;;;8.95;;
45970;SDS011;31681;48.982;8.394;2023-08-20T08:19:21;11.52;;;9.30;;
45970;SDS011;31681;48.982;8.394;2023-08-20T08:21:47;10.13;;;9.07;;
45970;SDS011;31681;48.982;8.394;2023-08-20T08:24:12;10.20;;;9.13;;
45970;SDS011;31681;48.982;8.394;2023-08-20T08:26:38;15.52;;;8.93;;
45970;SDS011;31681;48.982;8.394;2023-08-20T08:29:03;12.07;;;9.50;;
45970;SDS011;31681;48.982;8.394;2023-08-20T08:31:29;10.95;;;8.85;;
45970;SDS011;31681;48.982;8.394;2023-08-20T08:33:54;11.15;;;9.25;;
45970;SDS011;31681;48.982;8.394;2023-08-20T08:36:19;9.65;;;8.65;;
45970;SDS011;31681;48.982;8.394;2023-08-20T08:38:45;9.88;;;8.32;;
45970;SDS011;31681;48.982;8.394;2023-08-20T08:41:11;12.23;;;8.95;;
45970;SDS011;31681;48.982;8.394;2023-08-20T08:43:40;9.55;;;8.38;;
45970;SDS011;31681;48.982;8.394;2023-08-20T08:46:06;11.05;;;9.43;;
45970;SDS011;31681;48.982;8.394;2023-08-20T08:48:31;13.27;;;8.75;;
45970;SDS011;31681;48.982;8.394;2023-08-20T08:50:57;10.52;;;8.57;;
45970;SDS011;31681;48.982;8.394;2023-08-20T08:53:23;13.57;;;9.43;;
45970;SDS011;31681;48.982;8.394;2023-08-20T08:55:49;11.57;;;8.98;;
45970;SDS011;31681;48.982;8.394;2023-08-20T08:58:15;9.98;;;8.98;;
45970;SDS011;31681;48.982;8.394;2023-08-20T09:00:40;11.20;;;9.50;;
45970;SDS011;31681;48.982;8.394;2023-08-20T09:03:06;12.90;;;9.10;;
45970;SDS011;31681;48.982;8.394;2023-08-20T09:05:31;10.05;;;9.05;;
45970;SDS011;31681;48.982;8.394;2023-08-20T09:07:57;11.40;;;9.40;;
45970;SDS011;31681;48.982;8.394;2023-08-20T09:10:25;10.77;;;8.63;;
45970;SDS011;31681;48.982;8.394;2023-08-20T09:12:50;9.55;;;8.65;;
45970;SDS011;31681;48.982;8.394;2023-08-20T09:15:17;10.55;;;8.55;;
45970;SDS011;31681;48.982;8.394;2023-08-20T09:17:42;12.52;;;9.18;;
45970;SDS011;31681;48.982;8.394;2023-08-20T09:20:07;10.40;;;8.48;;
45970;SDS011;31681;48.982;8.394;2023-08-20T09:22:34;9.70;;;8.80;;
45970;SDS011;31681;48.982;8.394;2023-08-20T09:24:59;12.95;;;8.70;;
45970;SDS011;31681;48.982;8.394;2023-08-20T09:27:25;10.40;;;8.57;;
45970;SDS011;31681;48.982;8.394;2023-08-20T09:29:54;10.95;;;8.50;;
45970;SDS011;31681;48.982;8.394;2023-08-20T09:32:20;9.13;;;7.85;;
45970;SDS011;31681;48.982;8.394;2023-08-20T09:34:46;9.88;;;8.18;;
45970;SDS011;31681;48.982;8.394;2023-08-20T09:37:12;9.95;;;8.95;;
45970;SDS011;31681;48.982;8.394;2023-08-20T09:39:38;11.93;;;8.55;;
45970;SDS011;31681;48.982;8.394;2023-08-20T09:42:04;9.55;;;8.38;;
45970;SDS011;31681;48.982;8.394;2023-08-20T09:44:38;14.77;;;8.60;;
45970;SDS011;31681;48.982;8.394;2023-08-20T09:47:08;10.98;;;8.75;;
45970;SDS011;31681;48.982;8.394;2023-08-20T09:49:43;10.15;;;7.82;;
45970;SDS011;31681;48.982;8.394;2023-08-20T09:52:13;8.70;;;7.60;;
45970;SDS011;31681;48.982;8.394;2023-08-20T09:54:50;8.70;;;7.90;;
45970;SDS011;31681;48.982;8.394;2023-08-20T09:57:26;10.90;;;8.50;;
45970;SDS011;31681;48.982;8.394;2023-08-20T09:59:52;10.27;;;8.75;;
45970;SDS011;31681;48.982;8.394;2023-08-20T10:02:18;10.98;;;8.45;;
45970;SDS011;31681;48.982;8.394;2023-08-20T10:04:44;11.90;;;8.85;;
45970;SDS011;31681;48.982;8.394;2023-08-20T10:07:09;10.18;;;8.88;;
45970;SDS011;31681;48.982;8.394;2023-08-20T10:09:35;9.38;;;8.00;;
45970;SDS011;31681;48.982;8.394;2023-08-20T10:12:01;9.68;;;8.68;;
45970;SDS011;31681;48.982;8.394;2023-08-20T10:14:26;12.70;;;7.70;;
45970;SDS011;31681;48.982;8.394;2023-08-20T10:16:52;13.18;;;8.25;;
45970;SDS011;31681;48.982;8.394;2023-08-20T10:19:17;8.57;;;7.78;;
45970;SDS011;31681;48.982;8.394;2023-08-20T10:21:44;8.88;;;7.32;;
45970;SDS011;31681;48.982;8.394;2023-08-20T10:24:16;11.23;;;7.82;;
45970;SDS011;31681;48.982;8.394;2023-08-20T10:26:41;12.73;;;7.40;;
45970;SDS011;31681;48.982;8.394;2023-08-20T10:31:50;8.52;;;7.05;;
45970;SDS011;31681;48.982;8.394;2023-08-20T10:34:38;10.55;;;8.30;;
45970;SDS011;31681;48.982;8.394;2023-08-20T10:37:10;10.98;;;7.43;;
45970;SDS011;31681;48.982;8.394;2023-08-20T10:39:36;8.00;;;6.93;;
45970;SDS011;31681;48.982;8.394;2023-08-20T10:42:08;8.57;;;7.40;;
45970;SDS011;31681;48.982;8.394;2023-08-20T10:47:18;11.18;;;7.53;;
45970;SDS011;31681;48.982;8.394;2023-08-20T10:49:43;10.20;;;6.75;;
45970;SDS011;31681;48.982;8.394;2023-08-20T10:52:09;9.63;;;6.93;;
45970;SDS011;31681;48.982;8.394;2023-08-20T10:54:34;9.80;;;7.10;;
45970;SDS011;31681;48.982;8.394;2023-08-20T10:56:59;9.30;;;7.25;;
45970;SDS011;31681;48.982;8.394;2023-08-20T10:59:25;7.93;;;6.68;;
45970;SDS011;31681;48.982;8.394;2023-08-20T11:01:52;6.90;;;6.10;;
45970;SDS011;31681;48.982;8.394;2023-08-20T11:04:19;9.18;;;7.43;;
45970;SDS011;31681;48.982;8.394;2023-08-20T11:06:45;9.27;;;7.40;;
45970;SDS011;31681;48.982;8.394;2023-08-20T11:09:11;8.82;;;6.82;;
45970;SDS011;31681;48.982;8.394;2023-08-20T11:11:40;8.70;;;7.00;;
45970;SDS011;31681;48.982;8.394;2023-08-20T11:14:06;7.15;;;6.45;;
45970;SDS011;31681;48.982;8.394;2023-08-20T11:16:35;8.65;;;6.68;;
45970;SDS011;31681;48.982;8.394;2023-08-20T11:19:01;8.75;;;6.55;;
45970;SDS011;31681;48.982;8.394;2023-08-20T11:21:30;9.18;;;7.15;;
45970;SDS011;31681;48.982;8.394;2023-08-20T11:23:56;7.22;;;6.50;;
45970;SDS011;31681;48.982;8.394;2023-08-20T11:26:22;7.80;;;6.80;;
45970;SDS011;31681;48.982;8.394;2023-08-20T11:28:47;7.93;;;7.07;;
45970;SDS011;31681;48.982;8.394;2023-08-20T11:31:12;7.95;;;6.78;;
45970;SDS011;31681;48.982;8.394;2023-08-20T11:33:38;11.25;;;7.43;;
45970;SDS011;31681;48.982;8.394;2023-08-20T11:36:04;8.20;;;6.80;;
45970;SDS011;31681;48.982;8.394;2023-08-20T11:38:30;9.70;;;7.15;;
45970;SDS011;31681;48.982;8.394;2023-08-20T11:40:55;9.98;;;7.20;;
45970;SDS011;31681;48.982;8.394;2023-08-20T11:43:22;7.65;;;6.88;;
45970;SDS011;31681;48.982;8.394;2023-08-20T11:45:48;8.32;;;7.25;;
45970;SDS011;31681;48.982;8.394;2023-08-20T11:48:14;9.02;;;7.38;;
45970;SDS011;31681;48.982;8.394;2023-08-20T11:50:39;8.38;;;7.13;;
45970;SDS011;31681;48.982;8.394;2023-08-20T11:53:06;7.97;;;7.28;;
45970;SDS011;31681;48.982;8.394;2023-08-20T11:55:31;7.75;;;6.80;;
45970;SDS011;31681;48.982;8.394;2023-08-20T11:57:56;10.23;;;7.53;;
45970;SDS011;31681;48.982;8.394;2023-08-20T12:00:29;7.65;;;6.82;;
45970;SDS011;31681;48.982;8.394;2023-08-20T12:02:55;10.25;;;7.60;;
45970;SDS011;31681;48.982;8.394;2023-08-20T12:05:30;7.47;;;6.80;;
45970;SDS011;31681;48.982;8.394;2023-08-20T12:08:02;9.73;;;7.80;;
45970;SDS011;31681;48.982;8.394;2023-08-20T12:10:28;9.32;;;7.45;;
45970;SDS011;31681;48.982;8.394;2023-08-20T12:12:54;8.90;;;7.07;;
45970;SDS011;31681;48.982;8.394;2023-08-20T12:15:19;8.43;;;6.70;;
45970;SDS011;31681;48.982;8.394;2023-08-20T12:17:57;10.00;;;6.40;;
45970;SDS011;31681;48.982;8.394;2023-08-20T12:20:23;9.52;;;7.00;;
45970;SDS011;31681;48.982;8.394;2023-08-20T12:22:49;8.25;;;6.90;;
45970;SDS011;31681;48.982;8.394;2023-08-20T12:25:14;10.93;;;6.40;;
45970;SDS011;31681;48.982;8.394;2023-08-20T12:27:39;7.20;;;6.45;;
45970;SDS011;31681;48.982;8.394;2023-08-20T12:30:05;6.95;;;6.00;;
45970;SDS011;31681;48.982;8.394;2023-08-20T12:32:30;7.85;;;6.05;;
45970;SDS011;31681;48.982;8.394;2023-08-20T12:34:55;7.78;;;7.05;;
45970;SDS011;31681;48.982;8.394;2023-08-20T12:37:21;9.32;;;6.90;;
45970;SDS011;31681;48.982;8.394;2023-08-20T12:39:46;7.60;;;6.60;;
45970;SDS011;31681;48.982;8.394;2023-08-20T12:42:11;9.93;;;7.20;;
45970;SDS011;31681;48.982;8.394;2023-08-20T12:44:37;7.97;;;6.65;;
45970;SDS011;31681;48.982;8.394;2023-08-20T12:47:02;8.03;;;6.67;;
45970;SDS011;31681;48.982;8.394;2023-08-20T12:49:28;10.40;;;6.70;;
45970;SDS011;31681;48.982;8.394;2023-08-20T12:51:53;9.10;;;7.20;;
45970;SDS011;31681;48.982;8.394;2023-08-20T12:54:18;7.43;;;6.10;;
45970;SDS011;31681;48.982;8.394;2023-08-20T12:56:43;7.75;;;6.63;;
45970;SDS011;31681;48.982;8.394;2023-08-20T12:59:09;7.32;;;6.60;;
45970;SDS011;31681;48.982;8.394;2023-08-20T13:01:34;6.77;;;6.17;;
45970;SDS011;31681;48.982;8.394;2023-08-20T13:03:59;8.52;;;6.63;;
45970;SDS011;31681;48.982;8.394;2023-08-20T13:06:25;7.15;;;6.60;;
45970;SDS011;31681;48.982;8.394;2023-08-20T13:08:50;7.15;;;6.40;;
45970;SDS011;31681;48.982;8.394;2023-08-20T13:11:16;8.88;;;6.38;;
45970;SDS011;31681;48.982;8.394;2023-08-20T13:13:42;10.45;;;6.53;;
45970;SDS011;31681;48.982;8.394;2023-08-20T13:16:07;8.65;;;6.55;;
45970;SDS011;31681;48.982;8.394;2023-08-20T13:18:33;6.80;;;6.18;;
45970;SDS011;31681;48.982;8.394;2023-08-20T13:20:58;8.15;;;6.35;;
45970;SDS011;31681;48.982;8.394;2023-08-20T13:23:24;6.60;;;5.93;;
45970;SDS011;31681;48.982;8.394;2023-08-20T13:25:49;9.50;;;6.73;;
45970;SDS011;31681;48.982;8.394;2023-08-20T13:28:14;7.68;;;5.78;;
45970;SDS011;31681;48.982;8.394;2023-08-20T13:30:40;6.57;;;5.87;;
45970;SDS011;31681;48.982;8.394;2023-08-20T13:33:05;10.52;;;5.60;;
45970;SDS011;31681;48.982;8.394;2023-08-20T13:35:30;8.35;;;5.28;;
45970;SDS011;31681;48.982;8.394;2023-08-20T13:37:56;6.72;;;6.03;;
45970;SDS011;31681;48.982;8.394;2023-08-20T13:40:21;6.40;;;5.80;;
45970;SDS011;31681;48.982;8.394;2023-08-20T13:42:46;6.60;;;6.00;;
45970;SDS011;31681;48.982;8.394;2023-08-20T13:45:11;8.37;;;5.93;;
45970;SDS011;31681;48.982;8.394;2023-08-20T13:47:37;6.28;;;5.60;;
45970;SDS011;31681;48.982;8.394;2023-08-20T13:50:02;8.60;;;5.75;;
45970;SDS011;31681;48.982;8.394;2023-08-20T13:52:29;8.23;;;5.72;;
45970;SDS011;31681;48.982;8.394;2023-08-20T13:54:54;10.07;;;6.23;;
45970;SDS011;31681;48.982;8.394;2023-08-20T13:57:19;6.73;;;5.53;;
45970;SDS011;31681;48.982;8.394;2023-08-20T13:59:45;6.28;;;5.63;;
45970;SDS011;31681;48.982;8.394;2023-08-20T14:02:10;7.73;;;5.60;;
45970;SDS011;31681;48.982;8.394;2023-08-20T14:04:36;8.25;;;5.63;;
45970;SDS011;31681;48.982;8.394;2023-08-20T14:07:02;9.73;;;5.78;;
45970;SDS011;31681;48.982;8.394;2023-08-20T14:09:27;10.55;;;6.18;;
45970;SDS011;31681;48.982;8.394;2023-08-20T14:11:52;8.40;;;5.43;;
45970;SDS011;31681;48.982;8.394;2023-08-20T14:14:17;9.00;;;5.97;;
45970;SDS011;31681;48.982;8.394;2023-08-20T14:16:43;5.50;;;4.90;;
45970;SDS011;31681;48.982;8.394;2023-08-20T14:19:08;7.55;;;5.18;;
45970;SDS011;31681;48.982;8.394;2023-08-20T14:21:33;8.48;;;5.53;;
45970;SDS011;31681;48.982;8.394;2023-08-20T14:23:58;6.83;;;5.63;;
45970;SDS011;31681;48.982;8.394;2023-08-20T14:26:24;5.95;;;5.20;;
45970;SDS011;31681;48.982;8.394;2023-08-20T14:28:49;8.60;;;5.70;;
45970;SDS011;31681;48.982;8.394;2023-08-20T14:31:14;12.57;;;5.60;;
45970;SDS011;31681;48.982;8.394;2023-08-20T14:33:40;6.57;;;5.78;;